Main page
METAR-TAF:

Airports :

Tunis, Tunisia

Tunis–Carthage International Airport

latitude: 36-50N, longitude: 010-14E, elevation: 3 m

Current weather observation

The report was made 25 minutes ago, at 13:30 UTC
Wind 13 kt from the North, varying between North/Northwest and Northeast
Temperature 33°C
Humidity 39%
Pressure 1015 hPa
Visibility 10 km or more
no clouds below 1500 m and no cumulonimbus

METAR: DTTA 291330Z 01013KT 340V050 CAVOK 33/17 Q1015 NOSIG

Time: 14:55 (13:55 UTC)

Forecast

The report was made 2 hours and 55 minutes ago, at 11:00 UTC
Forecast valid from 29 at 12 UTC to 30 at 12 UTC
Wind 12 kt from the Northwest
Visibility 10 km or more
no clouds below 1500 m and no cumulonimbus
Becoming
from 29 at 20 UTC to 29 at 22 UTC
Wind 3 kt from variable directions

TAF: DTTA 291100Z 2912/3012 32012KT CAVOK BECMG 2920/2922 VRB03KT

METAR-TAF

Weather observations and forecasts of more than 4000 airports (METAR and TAF reports).

The available stations are represented by yellow and red dots on the map.

Hover mouse over dot to see the name of the station.

Then click to see weather observations and forecasts.

To change the map : click on the green buttons with a black cross to zoom in, on the green button with a dash to zoom out, or on the green arrows for adjacent maps.


METAR-TAF: